sensor_id;sensor_type;location;lat;lon;timestamp;P1;durP1;ratioP1;P2;durP2;ratioP2
60416;SDS011;46263;44.726;10.396;2023-02-16T00:00:14;17.63;;;8.73;;
60416;SDS011;46263;44.726;10.396;2023-02-16T00:02:44;16.65;;;8.63;;
60416;SDS011;46263;44.726;10.396;2023-02-16T00:05:30;14.63;;;7.68;;
60416;SDS011;46263;44.726;10.396;2023-02-16T00:07:57;11.48;;;6.80;;
60416;SDS011;46263;44.726;10.396;2023-02-16T00:10:24;12.20;;;6.80;;
60416;SDS011;46263;44.726;10.396;2023-02-16T00:12:54;13.18;;;7.03;;
60416;SDS011;46263;44.726;10.396;2023-02-16T00:15:38;14.10;;;7.47;;
60416;SDS011;46263;44.726;10.396;2023-02-16T00:18:06;17.02;;;8.15;;
60416;SDS011;46263;44.726;10.396;2023-02-16T00:20:41;17.60;;;8.07;;
60416;SDS011;46263;44.726;10.396;2023-02-16T00:23:07;16.08;;;7.63;;
60416;SDS011;46263;44.726;10.396;2023-02-16T00:25:32;15.35;;;7.20;;
60416;SDS011;46263;44.726;10.396;2023-02-16T00:28:02;14.30;;;7.28;;
60416;SDS011;46263;44.726;10.396;2023-02-16T00:30:29;16.98;;;7.53;;
60416;SDS011;46263;44.726;10.396;2023-02-16T00:32:55;12.07;;;6.47;;
60416;SDS011;46263;44.726;10.396;2023-02-16T00:35:22;14.45;;;7.13;;
60416;SDS011;46263;44.726;10.396;2023-02-16T00:37:47;16.65;;;8.57;;
60416;SDS011;46263;44.726;10.396;2023-02-16T00:40:14;10.45;;;5.80;;
60416;SDS011;46263;44.726;10.396;2023-02-16T00:42:41;11.38;;;5.10;;
60416;SDS011;46263;44.726;10.396;2023-02-16T00:45:11;9.95;;;5.20;;
60416;SDS011;46263;44.726;10.396;2023-02-16T00:47:42;10.80;;;4.80;;
60416;SDS011;46263;44.726;10.396;2023-02-16T00:52:40;8.48;;;5.20;;
60416;SDS011;46263;44.726;10.396;2023-02-16T00:55:08;8.30;;;5.00;;
60416;SDS011;46263;44.726;10.396;2023-02-16T00:57:41;10.95;;;5.90;;
60416;SDS011;46263;44.726;10.396;2023-02-16T01:00:27;12.07;;;5.30;;
60416;SDS011;46263;44.726;10.396;2023-02-16T01:02:56;9.32;;;5.28;;
60416;SDS011;46263;44.726;10.396;2023-02-16T01:05:26;9.68;;;5.38;;
60416;SDS011;46263;44.726;10.396;2023-02-16T01:07:53;11.07;;;5.70;;
60416;SDS011;46263;44.726;10.396;2023-02-16T01:10:37;9.60;;;4.90;;
60416;SDS011;46263;44.726;10.396;2023-02-16T01:13:23;10.13;;;5.22;;
60416;SDS011;46263;44.726;10.396;2023-02-16T01:15:50;11.20;;;5.85;;
60416;SDS011;46263;44.726;10.396;2023-02-16T01:18:16;12.75;;;6.13;;
60416;SDS011;46263;44.726;10.396;2023-02-16T01:20:43;12.73;;;5.70;;
60416;SDS011;46263;44.726;10.396;2023-02-16T01:23:10;9.45;;;5.35;;
60416;SDS011;46263;44.726;10.396;2023-02-16T01:25:35;9.60;;;5.10;;
60416;SDS011;46263;44.726;10.396;2023-02-16T01:28:02;12.38;;;6.25;;
60416;SDS011;46263;44.726;10.396;2023-02-16T01:30:28;9.75;;;5.57;;
60416;SDS011;46263;44.726;10.396;2023-02-16T01:32:54;12.02;;;6.13;;
60416;SDS011;46263;44.726;10.396;2023-02-16T01:35:27;16.50;;;7.43;;
60416;SDS011;46263;44.726;10.396;2023-02-16T01:37:57;16.35;;;7.65;;
60416;SDS011;46263;44.726;10.396;2023-02-16T01:43:00;17.77;;;8.88;;
60416;SDS011;46263;44.726;10.396;2023-02-16T01:45:29;22.23;;;9.98;;
60416;SDS011;46263;44.726;10.396;2023-02-16T01:48:02;20.10;;;9.90;;
60416;SDS011;46263;44.726;10.396;2023-02-16T01:50:42;27.25;;;11.10;;
60416;SDS011;46263;44.726;10.396;2023-02-16T01:55:44;20.52;;;10.57;;
60416;SDS011;46263;44.726;10.396;2023-02-16T01:58:16;24.33;;;11.27;;
60416;SDS011;46263;44.726;10.396;2023-02-16T02:03:23;26.67;;;11.13;;
60416;SDS011;46263;44.726;10.396;2023-02-16T02:06:17;23.42;;;10.77;;
60416;SDS011;46263;44.726;10.396;2023-02-16T02:09:07;20.52;;;10.27;;
60416;SDS011;46263;44.726;10.396;2023-02-16T02:11:46;22.65;;;9.18;;
60416;SDS011;46263;44.726;10.396;2023-02-16T02:14:18;21.48;;;10.27;;
60416;SDS011;46263;44.726;10.396;2023-02-16T02:16:54;18.67;;;8.82;;
60416;SDS011;46263;44.726;10.396;2023-02-16T02:19:22;21.65;;;9.57;;
60416;SDS011;46263;44.726;10.396;2023-02-16T02:28:47;16.80;;;7.70;;
60416;SDS011;46263;44.726;10.396;2023-02-16T02:31:00;13.93;;;6.85;;
60416;SDS011;46263;44.726;10.396;2023-02-16T02:36:26;10.65;;;5.15;;
60416;SDS011;46263;44.726;10.396;2023-02-16T02:39:13;11.13;;;5.40;;
60416;SDS011;46263;44.726;10.396;2023-02-16T02:42:14;9.68;;;5.18;;
60416;SDS011;46263;44.726;10.396;2023-02-16T02:44:48;9.73;;;4.47;;
60416;SDS011;46263;44.726;10.396;2023-02-16T02:47:17;10.05;;;5.35;;
60416;SDS011;46263;44.726;10.396;2023-02-16T02:49:52;10.00;;;5.32;;
60416;SDS011;46263;44.726;10.396;2023-02-16T02:52:19;7.70;;;4.63;;
60416;SDS011;46263;44.726;10.396;2023-02-16T02:54:46;9.80;;;5.68;;
60416;SDS011;46263;44.726;10.396;2023-02-16T02:57:36;11.70;;;5.28;;
60416;SDS011;46263;44.726;10.396;2023-02-16T03:00:26;10.30;;;5.28;;
60416;SDS011;46263;44.726;10.396;2023-02-16T03:03:23;8.60;;;5.22;;
60416;SDS011;46263;44.726;10.396;2023-02-16T03:06:12;8.52;;;4.78;;
60416;SDS011;46263;44.726;10.396;2023-02-16T03:11:14;7.13;;;4.22;;
60416;SDS011;46263;44.726;10.396;2023-02-16T03:14:03;9.27;;;4.80;;
60416;SDS011;46263;44.726;10.396;2023-02-16T03:16:34;7.43;;;4.57;;
60416;SDS011;46263;44.726;10.396;2023-02-16T03:19:05;10.27;;;5.32;;
60416;SDS011;46263;44.726;10.396;2023-02-16T03:21:51;12.70;;;5.90;;
60416;SDS011;46263;44.726;10.396;2023-02-16T03:24:36;10.75;;;5.07;;
60416;SDS011;46263;44.726;10.396;2023-02-16T03:27:21;10.85;;;5.68;;
60416;SDS011;46263;44.726;10.396;2023-02-16T03:30:09;11.10;;;5.90;;
60416;SDS011;46263;44.726;10.396;2023-02-16T03:32:36;12.88;;;5.93;;
60416;SDS011;46263;44.726;10.396;2023-02-16T03:35:03;11.75;;;5.80;;
60416;SDS011;46263;44.726;10.396;2023-02-16T03:37:29;9.60;;;5.57;;
60416;SDS011;46263;44.726;10.396;2023-02-16T03:39:56;10.43;;;5.57;;
60416;SDS011;46263;44.726;10.396;2023-02-16T03:42:46;10.93;;;5.68;;
60416;SDS011;46263;44.726;10.396;2023-02-16T03:45:13;12.52;;;5.68;;
60416;SDS011;46263;44.726;10.396;2023-02-16T03:47:38;12.27;;;5.72;;
60416;SDS011;46263;44.726;10.396;2023-02-16T03:50:04;11.70;;;5.78;;
60416;SDS011;46263;44.726;10.396;2023-02-16T03:52:31;12.18;;;5.80;;
60416;SDS011;46263;44.726;10.396;2023-02-16T03:54:56;10.48;;;5.95;;
60416;SDS011;46263;44.726;10.396;2023-02-16T03:57:22;12.02;;;6.47;;
60416;SDS011;46263;44.726;10.396;2023-02-16T03:59:47;12.75;;;6.50;;
60416;SDS011;46263;44.726;10.396;2023-02-16T04:02:13;13.55;;;6.00;;
60416;SDS011;46263;44.726;10.396;2023-02-16T04:04:38;14.98;;;6.38;;
60416;SDS011;46263;44.726;10.396;2023-02-16T04:07:04;14.30;;;6.95;;
60416;SDS011;46263;44.726;10.396;2023-02-16T04:09:29;14.77;;;5.85;;
60416;SDS011;46263;44.726;10.396;2023-02-16T04:11:55;12.05;;;6.00;;
60416;SDS011;46263;44.726;10.396;2023-02-16T04:14:39;12.18;;;6.43;;
60416;SDS011;46263;44.726;10.396;2023-02-16T04:17:04;13.77;;;5.93;;
60416;SDS011;46263;44.726;10.396;2023-02-16T04:19:30;11.55;;;5.72;;
60416;SDS011;46263;44.726;10.396;2023-02-16T04:21:55;10.68;;;5.40;;
60416;SDS011;46263;44.726;10.396;2023-02-16T04:24:21;10.95;;;5.68;;
60416;SDS011;46263;44.726;10.396;2023-02-16T04:26:47;12.82;;;5.80;;
60416;SDS011;46263;44.726;10.396;2023-02-16T04:29:13;12.18;;;5.45;;
60416;SDS011;46263;44.726;10.396;2023-02-16T04:31:39;13.07;;;5.53;;
60416;SDS011;46263;44.726;10.396;2023-02-16T04:34:05;13.40;;;5.85;;
60416;SDS011;46263;44.726;10.396;2023-02-16T04:36:30;11.27;;;5.30;;
60416;SDS011;46263;44.726;10.396;2023-02-16T04:38:56;10.38;;;5.53;;
60416;SDS011;46263;44.726;10.396;2023-02-16T04:41:22;10.25;;;4.88;;
60416;SDS011;46263;44.726;10.396;2023-02-16T04:43:47;10.75;;;5.15;;
60416;SDS011;46263;44.726;10.396;2023-02-16T04:46:13;13.15;;;5.57;;
60416;SDS011;46263;44.726;10.396;2023-02-16T04:48:38;12.02;;;5.80;;
60416;SDS011;46263;44.726;10.396;2023-02-16T04:51:04;15.50;;;6.75;;
60416;SDS011;46263;44.726;10.396;2023-02-16T04:53:30;10.52;;;5.88;;
60416;SDS011;46263;44.726;10.396;2023-02-16T04:55:55;13.45;;;6.03;;
60416;SDS011;46263;44.726;10.396;2023-02-16T04:58:21;11.60;;;5.90;;
60416;SDS011;46263;44.726;10.396;2023-02-16T05:00:46;14.40;;;6.20;;
60416;SDS011;46263;44.726;10.396;2023-02-16T05:03:12;12.18;;;6.18;;
60416;SDS011;46263;44.726;10.396;2023-02-16T05:05:37;11.57;;;5.45;;
60416;SDS011;46263;44.726;10.396;2023-02-16T05:08:03;12.73;;;5.85;;
60416;SDS011;46263;44.726;10.396;2023-02-16T05:10:29;13.23;;;5.38;;
60416;SDS011;46263;44.726;10.396;2023-02-16T05:12:55;11.27;;;5.03;;
60416;SDS011;46263;44.726;10.396;2023-02-16T05:15:39;11.13;;;5.28;;
60416;SDS011;46263;44.726;10.396;2023-02-16T05:18:04;9.65;;;4.80;;
60416;SDS011;46263;44.726;10.396;2023-02-16T05:20:30;11.18;;;5.68;;
60416;SDS011;46263;44.726;10.396;2023-02-16T05:23:14;9.65;;;4.90;;
60416;SDS011;46263;44.726;10.396;2023-02-16T05:25:40;11.77;;;5.15;;
60416;SDS011;46263;44.726;10.396;2023-02-16T05:28:06;8.95;;;4.65;;
60416;SDS011;46263;44.726;10.396;2023-02-16T05:30:31;9.13;;;4.95;;
60416;SDS011;46263;44.726;10.396;2023-02-16T05:32:57;11.60;;;4.90;;
60416;SDS011;46263;44.726;10.396;2023-02-16T05:35:22;14.73;;;5.72;;
60416;SDS011;46263;44.726;10.396;2023-02-16T05:37:48;12.05;;;4.97;;
60416;SDS011;46263;44.726;10.396;2023-02-16T05:40:13;11.48;;;5.18;;
60416;SDS011;46263;44.726;10.396;2023-02-16T05:42:39;10.35;;;5.30;;
60416;SDS011;46263;44.726;10.396;2023-02-16T05:45:05;10.60;;;5.43;;
60416;SDS011;46263;44.726;10.396;2023-02-16T05:47:30;14.15;;;6.30;;
60416;SDS011;46263;44.726;10.396;2023-02-16T05:49:56;12.98;;;5.57;;
60416;SDS011;46263;44.726;10.396;2023-02-16T05:52:21;11.98;;;5.47;;
60416;SDS011;46263;44.726;10.396;2023-02-16T05:54:47;9.40;;;4.78;;
60416;SDS011;46263;44.726;10.396;2023-02-16T05:57:13;10.88;;;5.00;;
60416;SDS011;46263;44.726;10.396;2023-02-16T05:59:39;9.98;;;5.25;;
60416;SDS011;46263;44.726;10.396;2023-02-16T06:02:04;12.02;;;4.80;;
60416;SDS011;46263;44.726;10.396;2023-02-16T06:04:30;11.20;;;4.40;;
60416;SDS011;46263;44.726;10.396;2023-02-16T06:06:56;10.77;;;4.82;;
60416;SDS011;46263;44.726;10.396;2023-02-16T06:09:22;8.82;;;4.93;;
60416;SDS011;46263;44.726;10.396;2023-02-16T06:11:48;10.65;;;5.00;;
60416;SDS011;46263;44.726;10.396;2023-02-16T06:14:17;10.15;;;5.07;;
60416;SDS011;46263;44.726;10.396;2023-02-16T06:16:45;12.52;;;5.05;;
60416;SDS011;46263;44.726;10.396;2023-02-16T06:19:12;11.95;;;4.72;;
60416;SDS011;46263;44.726;10.396;2023-02-16T06:21:39;7.55;;;4.07;;
60416;SDS011;46263;44.726;10.396;2023-02-16T06:24:06;9.80;;;4.35;;
60416;SDS011;46263;44.726;10.396;2023-02-16T06:26:33;9.30;;;4.60;;
60416;SDS011;46263;44.726;10.396;2023-02-16T06:28:59;8.07;;;4.43;;
60416;SDS011;46263;44.726;10.396;2023-02-16T06:31:25;9.82;;;3.95;;
60416;SDS011;46263;44.726;10.396;2023-02-16T06:33:51;8.57;;;5.20;;
60416;SDS011;46263;44.726;10.396;2023-02-16T06:36:17;13.38;;;5.85;;
60416;SDS011;46263;44.726;10.396;2023-02-16T06:38:43;13.70;;;5.78;;
60416;SDS011;46263;44.726;10.396;2023-02-16T06:41:09;12.98;;;5.53;;
60416;SDS011;46263;44.726;10.396;2023-02-16T06:43:35;16.10;;;6.20;;
60416;SDS011;46263;44.726;10.396;2023-02-16T06:46:01;13.35;;;6.30;;
60416;SDS011;46263;44.726;10.396;2023-02-16T06:48:27;16.02;;;6.60;;
60416;SDS011;46263;44.726;10.396;2023-02-16T06:50:52;15.07;;;6.03;;
60416;SDS011;46263;44.726;10.396;2023-02-16T06:53:18;13.90;;;6.45;;
60416;SDS011;46263;44.726;10.396;2023-02-16T06:55:44;12.25;;;6.55;;
60416;SDS011;46263;44.726;10.396;2023-02-16T06:58:10;16.35;;;7.50;;
60416;SDS011;46263;44.726;10.396;2023-02-16T07:00:36;15.55;;;7.10;;
60416;SDS011;46263;44.726;10.396;2023-02-16T07:03:02;14.45;;;8.10;;
60416;SDS011;46263;44.726;10.396;2023-02-16T07:05:27;16.60;;;7.05;;
60416;SDS011;46263;44.726;10.396;2023-02-16T07:07:53;19.10;;;8.13;;
60416;SDS011;46263;44.726;10.396;2023-02-16T07:10:19;16.70;;;8.43;;
60416;SDS011;46263;44.726;10.396;2023-02-16T07:12:45;21.15;;;8.82;;
60416;SDS011;46263;44.726;10.396;2023-02-16T07:15:11;22.20;;;9.52;;
60416;SDS011;46263;44.726;10.396;2023-02-16T07:17:37;18.40;;;8.98;;
60416;SDS011;46263;44.726;10.396;2023-02-16T07:20:03;26.13;;;8.35;;
60416;SDS011;46263;44.726;10.396;2023-02-16T07:22:30;15.23;;;7.50;;
60416;SDS011;46263;44.726;10.396;2023-02-16T07:24:56;16.73;;;7.63;;
60416;SDS011;46263;44.726;10.396;2023-02-16T07:27:23;17.52;;;7.85;;
60416;SDS011;46263;44.726;10.396;2023-02-16T07:29:49;15.63;;;7.60;;
60416;SDS011;46263;44.726;10.396;2023-02-16T07:32:15;17.52;;;8.75;;
60416;SDS011;46263;44.726;10.396;2023-02-16T07:34:40;19.33;;;7.93;;
60416;SDS011;46263;44.726;10.396;2023-02-16T07:37:06;16.20;;;7.47;;
60416;SDS011;46263;44.726;10.396;2023-02-16T07:39:32;16.75;;;8.15;;
60416;SDS011;46263;44.726;10.396;2023-02-16T07:41:58;16.23;;;7.65;;
60416;SDS011;46263;44.726;10.396;2023-02-16T07:44:24;22.77;;;8.98;;
60416;SDS011;46263;44.726;10.396;2023-02-16T07:46:49;16.33;;;6.93;;
60416;SDS011;46263;44.726;10.396;2023-02-16T07:49:15;20.15;;;8.68;;
60416;SDS011;46263;44.726;10.396;2023-02-16T07:51:41;22.70;;;9.32;;
60416;SDS011;46263;44.726;10.396;2023-02-16T07:54:06;21.45;;;9.10;;
60416;SDS011;46263;44.726;10.396;2023-02-16T07:56:32;23.83;;;8.65;;
60416;SDS011;46263;44.726;10.396;2023-02-16T07:58:59;20.73;;;9.88;;
60416;SDS011;46263;44.726;10.396;2023-02-16T08:01:26;24.73;;;10.48;;
60416;SDS011;46263;44.726;10.396;2023-02-16T08:03:52;21.50;;;9.52;;
60416;SDS011;46263;44.726;10.396;2023-02-16T08:06:18;23.40;;;10.98;;
60416;SDS011;46263;44.726;10.396;2023-02-16T08:08:44;25.42;;;11.82;;
60416;SDS011;46263;44.726;10.396;2023-02-16T08:11:14;26.83;;;11.07;;
60416;SDS011;46263;44.726;10.396;2023-02-16T08:13:43;29.08;;;12.25;;
60416;SDS011;46263;44.726;10.396;2023-02-16T08:16:09;26.58;;;12.18;;
60416;SDS011;46263;44.726;10.396;2023-02-16T08:18:37;26.20;;;11.75;;
60416;SDS011;46263;44.726;10.396;2023-02-16T08:21:13;27.20;;;13.15;;
60416;SDS011;46263;44.726;10.396;2023-02-16T08:23:50;26.65;;;12.80;;
60416;SDS011;46263;44.726;10.396;2023-02-16T08:26:27;32.50;;;14.05;;
60416;SDS011;46263;44.726;10.396;2023-02-16T08:28:59;28.88;;;14.02;;
60416;SDS011;46263;44.726;10.396;2023-02-16T08:31:27;30.83;;;14.02;;
60416;SDS011;46263;44.726;10.396;2023-02-16T08:33:54;30.50;;;13.70;;
60416;SDS011;46263;44.726;10.396;2023-02-16T08:36:28;32.67;;;14.45;;
60416;SDS011;46263;44.726;10.396;2023-02-16T08:38:59;41.17;;;14.93;;
60416;SDS011;46263;44.726;10.396;2023-02-16T08:41:30;32.28;;;14.98;;
60416;SDS011;46263;44.726;10.396;2023-02-16T08:43:58;34.15;;;16.15;;
60416;SDS011;46263;44.726;10.396;2023-02-16T08:46:25;31.70;;;15.35;;
60416;SDS011;46263;44.726;10.396;2023-02-16T08:48:56;32.13;;;15.05;;
60416;SDS011;46263;44.726;10.396;2023-02-16T08:51:25;37.45;;;16.08;;
60416;SDS011;46263;44.726;10.396;2023-02-16T08:53:52;37.25;;;18.17;;
60416;SDS011;46263;44.726;10.396;2023-02-16T08:56:18;35.25;;;17.05;;
60416;SDS011;46263;44.726;10.396;2023-02-16T08:58:44;34.83;;;18.45;;
60416;SDS011;46263;44.726;10.396;2023-02-16T09:01:11;36.22;;;18.00;;
60416;SDS011;46263;44.726;10.396;2023-02-16T09:03:38;35.30;;;17.75;;
60416;SDS011;46263;44.726;10.396;2023-02-16T09:06:09;35.28;;;17.58;;
60416;SDS011;46263;44.726;10.396;2023-02-16T09:08:36;35.85;;;16.10;;
60416;SDS011;46263;44.726;10.396;2023-02-16T09:11:03;33.10;;;16.75;;
60416;SDS011;46263;44.726;10.396;2023-02-16T09:13:35;34.30;;;15.35;;
60416;SDS011;46263;44.726;10.396;2023-02-16T09:16:05;31.98;;;14.65;;
60416;SDS011;46263;44.726;10.396;2023-02-16T09:21:12;26.92;;;13.30;;
60416;SDS011;46263;44.726;10.396;2023-02-16T09:23:40;34.67;;;13.68;;
60416;SDS011;46263;44.726;10.396;2023-02-16T09:26:08;25.45;;;13.40;;
60416;SDS011;46263;44.726;10.396;2023-02-16T09:28:35;32.30;;;13.30;;
60416;SDS011;46263;44.726;10.396;2023-02-16T09:36:08;32.22;;;15.75;;
60416;SDS011;46263;44.726;10.396;2023-02-16T09:38:36;35.08;;;15.85;;
60416;SDS011;46263;44.726;10.396;2023-02-16T09:41:07;42.47;;;17.50;;
60416;SDS011;46263;44.726;10.396;2023-02-16T09:43:48;35.75;;;16.95;;
60416;SDS011;46263;44.726;10.396;2023-02-16T09:46:20;40.03;;;19.65;;
60416;SDS011;46263;44.726;10.396;2023-02-16T09:48:48;35.97;;;17.75;;
60416;SDS011;46263;44.726;10.396;2023-02-16T09:51:19;35.70;;;17.83;;
60416;SDS011;46263;44.726;10.396;2023-02-16T09:53:48;37.38;;;19.63;;
60416;SDS011;46263;44.726;10.396;2023-02-16T10:01:40;39.53;;;20.27;;
60416;SDS011;46263;44.726;10.396;2023-02-16T10:10:03;56.05;;;26.95;;
60416;SDS011;46263;44.726;10.396;2023-02-16T10:12:35;58.25;;;26.77;;
60416;SDS011;46263;44.726;10.396;2023-02-16T10:15:13;51.47;;;27.08;;
60416;SDS011;46263;44.726;10.396;2023-02-16T10:17:46;57.53;;;28.05;;
60416;SDS011;46263;44.726;10.396;2023-02-16T10:20:18;57.88;;;31.08;;
60416;SDS011;46263;44.726;10.396;2023-02-16T10:22:56;63.20;;;31.98;;
60416;SDS011;46263;44.726;10.396;2023-02-16T10:25:49;68.57;;;35.05;;
60416;SDS011;46263;44.726;10.396;2023-02-16T10:34:16;62.08;;;30.75;;
60416;SDS011;46263;44.726;10.396;2023-02-16T10:39:34;59.25;;;30.77;;
60416;SDS011;46263;44.726;10.396;2023-02-16T10:47:41;53.55;;;29.13;;
60416;SDS011;46263;44.726;10.396;2023-02-16T10:50:42;58.00;;;30.92;;
60416;SDS011;46263;44.726;10.396;2023-02-16T10:53:19;57.25;;;29.52;;
60416;SDS011;46263;44.726;10.396;2023-02-16T10:55:54;57.25;;;28.52;;
60416;SDS011;46263;44.726;10.396;2023-02-16T10:58:23;52.50;;;29.15;;
60416;SDS011;46263;44.726;10.396;2023-02-16T11:01:09;53.13;;;29.45;;
60416;SDS011;46263;44.726;10.396;2023-02-16T11:03:49;53.88;;;27.52;;
60416;SDS011;46263;44.726;10.396;2023-02-16T11:06:18;56.63;;;29.85;;
60416;SDS011;46263;44.726;10.396;2023-02-16T11:08:46;52.42;;;29.50;;
60416;SDS011;46263;44.726;10.396;2023-02-16T11:13:59;59.45;;;30.13;;
60416;SDS011;46263;44.726;10.396;2023-02-16T11:16:27;58.03;;;28.88;;
60416;SDS011;46263;44.726;10.396;2023-02-16T11:18:55;59.72;;;29.02;;
60416;SDS011;46263;44.726;10.396;2023-02-16T11:21:40;57.25;;;30.10;;
60416;SDS011;46263;44.726;10.396;2023-02-16T11:24:22;61.65;;;29.88;;
60416;SDS011;46263;44.726;10.396;2023-02-16T11:27:03;57.63;;;31.08;;
60416;SDS011;46263;44.726;10.396;2023-02-16T11:29:31;57.85;;;30.20;;
60416;SDS011;46263;44.726;10.396;2023-02-16T11:31:58;59.08;;;30.15;;
60416;SDS011;46263;44.726;10.396;2023-02-16T11:34:32;58.10;;;30.38;;
60416;SDS011;46263;44.726;10.396;2023-02-16T11:37:04;53.28;;;29.38;;
60416;SDS011;46263;44.726;10.396;2023-02-16T11:39:54;58.67;;;30.63;;
60416;SDS011;46263;44.726;10.396;2023-02-16T11:45:26;62.03;;;28.40;;
60416;SDS011;46263;44.726;10.396;2023-02-16T11:47:55;58.63;;;28.65;;
60416;SDS011;46263;44.726;10.396;2023-02-16T11:50:24;53.50;;;28.33;;
60416;SDS011;46263;44.726;10.396;2023-02-16T11:55:34;59.08;;;27.77;;
60416;SDS011;46263;44.726;10.396;2023-02-16T11:58:19;57.00;;;27.75;;
60416;SDS011;46263;44.726;10.396;2023-02-16T12:09:17;47.33;;;25.15;;
60416;SDS011;46263;44.726;10.396;2023-02-16T12:12:17;55.50;;;29.52;;
60416;SDS011;46263;44.726;10.396;2023-02-16T12:30:43;51.28;;;28.50;;
60416;SDS011;46263;44.726;10.396;2023-02-16T12:41:29;63.33;;;31.45;;
60416;SDS011;46263;44.726;10.396;2023-02-16T12:44:16;60.28;;;30.52;;
60416;SDS011;46263;44.726;10.396;2023-02-16T12:46:49;60.65;;;31.52;;
60416;SDS011;46263;44.726;10.396;2023-02-16T12:49:25;63.55;;;29.48;;
60416;SDS011;46263;44.726;10.396;2023-02-16T12:54:48;61.13;;;31.20;;
60416;SDS011;46263;44.726;10.396;2023-02-16T12:57:19;62.97;;;31.95;;
60416;SDS011;46263;44.726;10.396;2023-02-16T12:59:57;61.97;;;29.55;;
60416;SDS011;46263;44.726;10.396;2023-02-16T13:02:40;62.78;;;31.30;;
60416;SDS011;46263;44.726;10.396;2023-02-16T13:07:43;63.95;;;31.15;;
60416;SDS011;46263;44.726;10.396;2023-02-16T13:10:31;57.97;;;30.48;;
60416;SDS011;46263;44.726;10.396;2023-02-16T13:13:05;66.70;;;31.48;;
60416;SDS011;46263;44.726;10.396;2023-02-16T13:15:40;63.20;;;31.42;;
60416;SDS011;46263;44.726;10.396;2023-02-16T13:18:13;61.60;;;30.20;;
60416;SDS011;46263;44.726;10.396;2023-02-16T13:20:44;60.72;;;28.33;;
60416;SDS011;46263;44.726;10.396;2023-02-16T13:31:28;66.18;;;30.38;;
60416;SDS011;46263;44.726;10.396;2023-02-16T13:39:40;58.58;;;28.15;;
60416;SDS011;46263;44.726;10.396;2023-02-16T13:45:08;53.63;;;28.15;;
60416;SDS011;46263;44.726;10.396;2023-02-16T13:47:38;56.03;;;27.52;;
60416;SDS011;46263;44.726;10.396;2023-02-16T13:50:22;62.97;;;31.05;;
60416;SDS011;46263;44.726;10.396;2023-02-16T13:52:52;65.93;;;27.63;;
60416;SDS011;46263;44.726;10.396;2023-02-16T13:55:34;60.97;;;29.60;;
60416;SDS011;46263;44.726;10.396;2023-02-16T14:03:11;72.22;;;30.98;;
60416;SDS011;46263;44.726;10.396;2023-02-16T14:06:28;61.70;;;31.20;;
60416;SDS011;46263;44.726;10.396;2023-02-16T14:14:30;60.15;;;28.67;;
60416;SDS011;46263;44.726;10.396;2023-02-16T14:22:45;61.08;;;28.88;;
60416;SDS011;46263;44.726;10.396;2023-02-16T14:35:30;59.80;;;27.80;;
60416;SDS011;46263;44.726;10.396;2023-02-16T14:38:00;62.60;;;31.30;;
60416;SDS011;46263;44.726;10.396;2023-02-16T14:40:38;58.80;;;28.05;;
60416;SDS011;46263;44.726;10.396;2023-02-16T14:57:30;57.50;;;29.77;;
60416;SDS011;46263;44.726;10.396;2023-02-16T15:00:05;50.72;;;27.55;;
60416;SDS011;46263;44.726;10.396;2023-02-16T15:02:40;54.17;;;28.45;;
60416;SDS011;46263;44.726;10.396;2023-02-16T15:05:36;55.17;;;28.05;;
60416;SDS011;46263;44.726;10.396;2023-02-16T15:08:08;52.72;;;27.65;;
60416;SDS011;46263;44.726;10.396;2023-02-16T15:10:41;55.38;;;26.60;;
60416;SDS011;46263;44.726;10.396;2023-02-16T15:13:17;61.20;;;26.90;;
60416;SDS011;46263;44.726;10.396;2023-02-16T15:15:49;58.45;;;29.40;;
60416;SDS011;46263;44.726;10.396;2023-02-16T15:18:27;56.17;;;28.35;;
60416;SDS011;46263;44.726;10.396;2023-02-16T15:20:57;63.17;;;29.35;;
60416;SDS011;46263;44.726;10.396;2023-02-16T15:23:28;58.03;;;28.92;;
60416;SDS011;46263;44.726;10.396;2023-02-16T15:28:27;64.78;;;30.10;;
60416;SDS011;46263;44.726;10.396;2023-02-16T15:30:55;59.90;;;30.75;;
60416;SDS011;46263;44.726;10.396;2023-02-16T15:33:36;63.25;;;29.05;;
60416;SDS011;46263;44.726;10.396;2023-02-16T15:36:06;57.35;;;29.00;;
60416;SDS011;46263;44.726;10.396;2023-02-16T15:41:24;65.60;;;29.15;;
60416;SDS011;46263;44.726;10.396;2023-02-16T15:43:54;59.72;;;30.38;;
60416;SDS011;46263;44.726;10.396;2023-02-16T15:48:57;65.50;;;31.08;;
60416;SDS011;46263;44.726;10.396;2023-02-16T15:51:31;64.55;;;30.25;;
60416;SDS011;46263;44.726;10.396;2023-02-16T15:54:02;57.55;;;29.70;;
60416;SDS011;46263;44.726;10.396;2023-02-16T15:56:37;61.55;;;30.67;;
60416;SDS011;46263;44.726;10.396;2023-02-16T16:01:38;59.15;;;28.80;;
60416;SDS011;46263;44.726;10.396;2023-02-16T16:04:18;61.85;;;29.20;;
60416;SDS011;46263;44.726;10.396;2023-02-16T16:06:46;58.38;;;29.25;;
60416;SDS011;46263;44.726;10.396;2023-02-16T16:09:25;83.03;;;29.40;;
60416;SDS011;46263;44.726;10.396;2023-02-16T16:11:57;64.47;;;29.70;;
60416;SDS011;46263;44.726;10.396;2023-02-16T16:14:26;66.03;;;30.85;;
60416;SDS011;46263;44.726;10.396;2023-02-16T16:16:53;61.60;;;30.17;;
60416;SDS011;46263;44.726;10.396;2023-02-16T16:19:29;63.38;;;29.95;;
60416;SDS011;46263;44.726;10.396;2023-02-16T16:22:00;64.72;;;30.30;;
60416;SDS011;46263;44.726;10.396;2023-02-16T16:27:03;62.25;;;31.02;;
60416;SDS011;46263;44.726;10.396;2023-02-16T16:29:38;61.40;;;29.08;;
60416;SDS011;46263;44.726;10.396;2023-02-16T16:32:28;68.03;;;32.63;;
60416;SDS011;46263;44.726;10.396;2023-02-16T16:34:55;66.63;;;32.38;;
60416;SDS011;46263;44.726;10.396;2023-02-16T16:37:32;63.28;;;30.55;;
60416;SDS011;46263;44.726;10.396;2023-02-16T16:40:10;66.15;;;31.73;;
60416;SDS011;46263;44.726;10.396;2023-02-16T16:43:26;63.63;;;30.20;;
60416;SDS011;46263;44.726;10.396;2023-02-16T16:45:41;68.53;;;31.75;;
60416;SDS011;46263;44.726;10.396;2023-02-16T16:50:52;62.30;;;31.20;;
60416;SDS011;46263;44.726;10.396;2023-02-16T16:53:45;65.85;;;32.28;;
60416;SDS011;46263;44.726;10.396;2023-02-16T16:56:16;59.33;;;32.97;;
60416;SDS011;46263;44.726;10.396;2023-02-16T16:58:42;59.13;;;31.55;;
60416;SDS011;46263;44.726;10.396;2023-02-16T17:01:13;66.40;;;32.72;;
60416;SDS011;46263;44.726;10.396;2023-02-16T17:03:39;64.90;;;35.45;;
60416;SDS011;46263;44.726;10.396;2023-02-16T17:06:05;66.68;;;33.55;;
60416;SDS011;46263;44.726;10.396;2023-02-16T17:08:30;77.78;;;40.60;;
60416;SDS011;46263;44.726;10.396;2023-02-16T17:10:56;97.32;;;44.10;;
60416;SDS011;46263;44.726;10.396;2023-02-16T17:13:22;81.38;;;40.60;;
60416;SDS011;46263;44.726;10.396;2023-02-16T17:18:19;70.60;;;36.20;;
60416;SDS011;46263;44.726;10.396;2023-02-16T17:20:46;66.20;;;35.78;;
60416;SDS011;46263;44.726;10.396;2023-02-16T17:23:13;71.10;;;32.63;;
60416;SDS011;46263;44.726;10.396;2023-02-16T17:25:41;68.88;;;32.97;;
60416;SDS011;46263;44.726;10.396;2023-02-16T17:28:07;63.40;;;29.73;;
60416;SDS011;46263;44.726;10.396;2023-02-16T17:30:34;71.18;;;32.65;;
60416;SDS011;46263;44.726;10.396;2023-02-16T17:33:00;69.18;;;33.05;;
60416;SDS011;46263;44.726;10.396;2023-02-16T17:35:26;65.57;;;32.03;;